Decoded Metar for KGFK (GRAND FORKS in ND, USA) (IATA:GFK) | Meteo·Mobile Aviation Weather
aviador You're here:

KGFK Decoded Metar

GRAND FORKS in ND, USA
Report Time2018-10-18 10:53:00
UTC Time2018-10-18 11:46:15
Flight Rules vfr VFR
Wind190° at 10 kt
W.Decomp.*RWY 17: 9.7 kt HW 2.4 kt RCW
RWY 27: 0.7 kt HW 10 kt LCW
W.Rank190° ranks 8
Current wind is above 190° avg. (9.5)
Visibility9999 m
Phenomena:N/A
Clouds:N/A
Expected CloudBase > 1,200 ft AGL from Temp-Dew spread
CeilingNone
Temp02°C (ISA -12)
Dew Point-1°C (81% RH)
AAT-3.7°C
QNH1019 hPa
Density Alt-928 ft
Elevation623 ft
Report Wrong Elevation
Raw Report
KGFK 181053Z 19010KT 10SM CLR 02/M01 A3010 RMK AO2 SLP202
T00171011=

Extra information for KGFK:More info

Metar Taf Metar & Taf Last 4 Metars F.Rules Stats Wind Profile Meteogram Temp Stats Airport Information Weather charts Add Link Nearby VenuesMetar ALERT Operation Metar Decoded Social comments

AIRNAV info for KGFK